Time;durP1;ratioP1;P1;durP2;ratioP2;P2;SDS_P1;SDS_P2;PMS_P1;PMS_P2;Temp;Humidity;BMP_temperature;BMP_pressure;BME280_temperature;BME280_humidity;BME280_pressure;Samples;Min_cycle;Max_cycle;Signal;HPM_P1;HPM_P2
2024/01/04 00:01:36;;;;;;;38.80;36.47;;;;;;;;;;5042623;28;20049;-78
2024/01/04 00:04:08;;;;;;;36.20;34.28;;;;;;;;;;5043244;28;20049;-76
2024/01/04 00:06:46;;;;;;;34.00;32.22;;;;;;;;;;5042324;28;20049;-76
2024/01/04 00:09:16;;;;;;;35.15;33.35;;;;;;;;;;5042941;28;20041;-77
2024/01/04 00:11:47;;;;;;;38.88;36.75;;;;;;;;;;5043662;28;20052;-76
2024/01/04 00:14:19;;;;;;;35.67;33.70;;;;;;;;;;5042264;28;20041;-76
2024/01/04 00:16:49;;;;;;;38.67;36.45;;;;;;;;;;5042065;28;20049;-76
2024/01/04 00:19:19;;;;;;;42.08;39.67;;;;;;;;;;5042131;28;20432;-75
2024/01/04 00:21:50;;;;;;;32.95;30.80;;;;;;;;;;5054183;28;20078;-76
2024/01/04 00:24:21;;;;;;;30.75;29.02;;;;;;;;;;5062663;28;20044;-76
2024/01/04 00:26:52;;;;;;;31.42;29.83;;;;;;;;;;5062401;28;20540;-76
2024/01/04 00:29:23;;;;;;;33.67;31.88;;;;;;;;;;5057510;28;20052;-75
2024/01/04 00:31:55;;;;;;;30.60;28.77;;;;;;;;;;5054810;28;20037;-76
2024/01/04 00:34:26;;;;;;;33.30;31.40;;;;;;;;;;5062113;28;20048;-76
2024/01/04 00:36:58;;;;;;;33.10;31.30;;;;;;;;;;5049245;28;20044;-77
2024/01/04 00:39:29;;;;;;;33.47;31.42;;;;;;;;;;5056884;28;20067;-77
2024/01/04 00:41:59;;;;;;;28.98;26.92;;;;;;;;;;5055361;28;20582;-77
2024/01/04 00:44:30;;;;;;;24.92;23.25;;;;;;;;;;5062234;28;20054;-77
2024/01/04 00:47:02;;;;;;;30.55;28.73;;;;;;;;;;5055974;28;20040;-75
2024/01/04 00:49:32;;;;;;;34.58;32.72;;;;;;;;;;5058558;28;20053;-78
2024/01/04 00:52:02;;;;;;;27.95;26.15;;;;;;;;;;5056687;28;20057;-75
2024/01/04 00:54:33;;;;;;;26.88;25.05;;;;;;;;;;5054245;28;20051;-75
2024/01/04 00:57:05;;;;;;;22.63;21.38;;;;;;;;;;5058700;28;20051;-74
2024/01/04 00:59:36;;;;;;;26.38;24.33;;;;;;;;;;5050790;28;20407;-78
2024/01/04 01:02:07;;;;;;;29.55;27.83;;;;;;;;;;5045116;28;20072;-77
2024/01/04 01:04:37;;;;;;;26.35;24.55;;;;;;;;;;5041319;28;20045;-75
2024/01/04 01:07:08;;;;;;;28.27;26.05;;;;;;;;;;5044078;28;20060;-77
2024/01/04 01:09:39;;;;;;;31.30;29.42;;;;;;;;;;5038940;28;20052;-75
2024/01/04 01:12:09;;;;;;;32.25;29.73;;;;;;;;;;5040731;28;20060;-74
2024/01/04 01:14:41;;;;;;;36.03;34.03;;;;;;;;;;5041236;28;20045;-75
2024/01/04 01:17:12;;;;;;;39.28;37.08;;;;;;;;;;5041770;28;20409;-76
2024/01/04 01:19:43;;;;;;;39.15;36.58;;;;;;;;;;5041824;28;20045;-75
2024/01/04 01:22:14;;;;;;;39.40;37.13;;;;;;;;;;5040579;28;20458;-74
2024/01/04 01:24:45;;;;;;;44.63;41.90;;;;;;;;;;5040414;28;20056;-75
2024/01/04 01:27:16;;;;;;;38.55;36.38;;;;;;;;;;5041506;28;20041;-74
2024/01/04 01:29:47;;;;;;;42.90;40.63;;;;;;;;;;5041300;28;20049;-75
2024/01/04 01:32:17;;;;;;;48.03;45.38;;;;;;;;;;5041971;28;20049;-75
2024/01/04 01:34:49;;;;;;;47.53;44.78;;;;;;;;;;5041402;28;20590;-75
2024/01/04 01:37:21;;;;;;;39.78;37.22;;;;;;;;;;5041666;28;20045;-75
2024/01/04 01:39:52;;;;;;;43.08;40.63;;;;;;;;;;5041609;28;20044;-74
2024/01/04 01:42:23;;;;;;;39.10;36.75;;;;;;;;;;5040567;28;20096;-75
2024/01/04 01:44:53;;;;;;;39.88;37.72;;;;;;;;;;5041788;28;20049;-75
2024/01/04 01:47:24;;;;;;;35.60;33.55;;;;;;;;;;5041248;28;20045;-76
2024/01/04 01:49:56;;;;;;;35.85;33.58;;;;;;;;;;5040464;28;20059;-75
2024/01/04 01:52:26;;;;;;;39.78;37.38;;;;;;;;;;5041535;28;20052;-74
2024/01/04 01:54:56;;;;;;;39.63;37.33;;;;;;;;;;5041731;28;20045;-75
2024/01/04 01:57:31;;;;;;;41.08;38.80;;;;;;;;;;5041318;28;20049;-74
2024/01/04 02:00:03;;;;;;;37.95;35.80;;;;;;;;;;5042309;28;20045;-79
2024/01/04 02:02:45;;;;;;;34.63;32.72;;;;;;;;;;5047449;28;20059;-76
2024/01/04 02:05:17;;;;;;;38.58;36.10;;;;;;;;;;5045286;28;20396;-74
2024/01/04 02:07:47;;;;;;;38.50;35.88;;;;;;;;;;5045423;28;20044;-75
2024/01/04 02:10:18;;;;;;;39.95;37.45;;;;;;;;;;5045627;28;20708;-77
2024/01/04 02:12:49;;;;;;;39.38;37.13;;;;;;;;;;5044159;28;20057;-76
2024/01/04 02:15:19;;;;;;;36.33;34.13;;;;;;;;;;5043786;28;20432;-76
2024/01/04 02:17:49;;;;;;;36.38;34.35;;;;;;;;;;5044808;28;20059;-75
2024/01/04 02:20:21;;;;;;;41.08;38.70;;;;;;;;;;5045874;28;20045;-74
2024/01/04 02:22:52;;;;;;;40.70;38.45;;;;;;;;;;5045963;28;20064;-76
2024/01/04 02:25:23;;;;;;;38.10;35.97;;;;;;;;;;5044315;28;20089;-76
2024/01/04 02:27:53;;;;;;;38.58;36.38;;;;;;;;;;5043391;28;20503;-77
2024/01/04 02:30:24;;;;;;;36.47;34.47;;;;;;;;;;5044365;28;20052;-74
2024/01/04 02:32:55;;;;;;;40.35;38.15;;;;;;;;;;5044277;28;20040;-77
2024/01/04 02:35:26;;;;;;;42.05;39.55;;;;;;;;;;5043042;28;20067;-74
2024/01/04 02:37:56;;;;;;;45.10;42.65;;;;;;;;;;5044864;28;20049;-74
2024/01/04 02:40:28;;;;;;;39.53;37.35;;;;;;;;;;5044129;28;20056;-74
2024/01/04 02:42:59;;;;;;;34.35;32.22;;;;;;;;;;5044764;28;20500;-75
2024/01/04 02:45:29;;;;;;;33.90;32.10;;;;;;;;;;5044381;28;20412;-75
2024/01/04 02:48:00;;;;;;;35.47;33.63;;;;;;;;;;5044414;28;20041;-76
2024/01/04 02:50:31;;;;;;;32.67;30.75;;;;;;;;;;5042922;28;20053;-74
2024/01/04 02:53:04;;;;;;;33.75;31.67;;;;;;;;;;5042566;28;20052;-76
2024/01/04 02:55:35;;;;;;;31.17;28.90;;;;;;;;;;5044133;28;20385;-74
2024/01/04 02:58:06;;;;;;;35.50;33.40;;;;;;;;;;5044843;28;20044;-77
2024/01/04 03:00:36;;;;;;;38.88;36.08;;;;;;;;;;5044216;28;20108;-76
2024/01/04 03:03:07;;;;;;;40.20;38.05;;;;;;;;;;5044375;28;20044;-77
2024/01/04 03:05:39;;;;;;;37.20;34.92;;;;;;;;;;5043738;28;20080;-75
2024/01/04 03:08:09;;;;;;;41.45;38.83;;;;;;;;;;5043934;28;20052;-77
2024/01/04 03:10:39;;;;;;;40.47;38.08;;;;;;;;;;5041917;28;20052;-77
2024/01/04 03:13:10;;;;;;;45.60;43.00;;;;;;;;;;5043955;28;20060;-76
2024/01/04 03:15:40;;;;;;;41.88;39.20;;;;;;;;;;5043485;28;20049;-76
2024/01/04 03:18:11;;;;;;;47.47;44.90;;;;;;;;;;5043577;28;20084;-77
2024/01/04 03:20:42;;;;;;;55.78;52.58;;;;;;;;;;5043560;28;20516;-77
2024/01/04 03:23:12;;;;;;;54.45;51.28;;;;;;;;;;5042433;28;20048;-76
2024/01/04 03:25:43;;;;;;;54.15;51.15;;;;;;;;;;5043766;28;20435;-76
2024/01/04 03:28:13;;;;;;;67.10;63.55;;;;;;;;;;5043326;28;20052;-77
2024/01/04 03:30:44;;;;;;;65.10;61.50;;;;;;;;;;5043330;28;20037;-73
2024/01/04 03:33:14;;;;;;;76.40;72.22;;;;;;;;;;5043979;28;20502;-77
2024/01/04 03:35:45;;;;;;;74.90;70.28;;;;;;;;;;5044519;28;20075;-76
2024/01/04 03:38:15;;;;;;;76.88;72.63;;;;;;;;;;5043488;28;20053;-76
2024/01/04 03:40:46;;;;;;;88.78;83.68;;;;;;;;;;5043170;28;20049;-74
2024/01/04 03:43:16;;;;;;;84.13;79.57;;;;;;;;;;5042551;28;20403;-76
2024/01/04 03:45:46;;;;;;;83.18;78.40;;;;;;;;;;5043344;28;20048;-76
2024/01/04 03:48:17;;;;;;;81.90;77.60;;;;;;;;;;5043383;28;20816;-77
2024/01/04 03:50:47;;;;;;;74.35;70.03;;;;;;;;;;5043281;28;20052;-82
2024/01/04 03:53:18;;;;;;;88.15;83.32;;;;;;;;;;5041846;28;20073;-80
2024/01/04 03:55:48;;;;;;;84.85;80.15;;;;;;;;;;5042500;28;20049;-75
2024/01/04 03:58:20;;;;;;;94.13;89.03;;;;;;;;;;5041331;28;20048;-76
2024/01/04 04:00:54;;;;;;;75.68;71.53;;;;;;;;;;5042800;28;20511;-74
2024/01/04 04:03:24;;;;;;;72.03;68.07;;;;;;;;;;5043138;28;20072;-77
2024/01/04 04:05:57;;;;;;;71.78;67.80;;;;;;;;;;5043847;28;20045;-74
2024/01/04 04:08:29;;;;;;;65.65;61.97;;;;;;;;;;5042718;28;20053;-74
2024/01/04 04:10:59;;;;;;;62.67;59.17;;;;;;;;;;5042883;28;20051;-76
2024/01/04 04:13:32;;;;;;;63.97;60.10;;;;;;;;;;5042900;28;20049;-74
2024/01/04 04:16:03;;;;;;;60.10;56.90;;;;;;;;;;5043422;28;20409;-75
2024/01/04 04:18:35;;;;;;;60.25;56.17;;;;;;;;;;5042359;28;20056;-74
2024/01/04 04:21:05;;;;;;;65.22;61.80;;;;;;;;;;5042818;28;20059;-77
2024/01/04 04:23:35;;;;;;;71.53;67.50;;;;;;;;;;5041527;28;21156;-78
2024/01/04 04:26:07;;;;;;;67.78;64.07;;;;;;;;;;5042781;28;20412;-78
2024/01/04 04:28:39;;;;;;;69.60;65.90;;;;;;;;;;5041790;28;20051;-78
2024/01/04 04:31:13;;;;;;;68.80;64.93;;;;;;;;;;5042001;28;20059;-76
2024/01/04 04:33:48;;;;;;;67.88;64.35;;;;;;;;;;5042715;28;20583;-76
2024/01/04 04:36:20;;;;;;;;;;;;;;;;;;5042957;28;20061;-76
2024/01/04 04:38:50;;;;;;;61.28;58.03;;;;;;;;;;5042131;28;20384;-74
2024/01/04 04:41:21;;;;;;;60.92;57.53;;;;;;;;;;5042291;28;20626;-76
2024/01/04 04:43:51;;;;;;;59.33;55.92;;;;;;;;;;5042237;28;20523;-73
2024/01/04 04:46:22;;;;;;;74.57;70.60;;;;;;;;;;5040912;28;20037;-76
2024/01/04 04:48:55;;;;;;;74.60;70.47;;;;;;;;;;5042110;28;21021;-74
2024/01/04 04:51:26;;;;;;;71.28;67.40;;;;;;;;;;5042259;28;20045;-76
2024/01/04 04:53:56;;;;;;;75.57;71.13;;;;;;;;;;5040887;28;20104;-75
2024/01/04 04:56:27;;;;;;;79.25;74.85;;;;;;;;;;5042361;28;20068;-75
2024/01/04 04:58:58;;;;;;;82.90;77.97;;;;;;;;;;5042369;28;20508;-76
2024/01/04 05:01:29;;;;;;;76.72;72.30;;;;;;;;;;5041885;28;20045;-76
2024/01/04 05:03:59;;;;;;;86.53;81.75;;;;;;;;;;5042234;28;20519;-79
2024/01/04 05:06:30;;;;;;;73.38;69.18;;;;;;;;;;5041421;28;20045;-75
2024/01/04 05:09:04;;;;;;;81.03;76.70;;;;;;;;;;5042025;28;20048;-74
2024/01/04 05:11:35;;;;;;;68.22;64.65;;;;;;;;;;5042061;28;20407;-75
2024/01/04 05:14:04;;;;;;;79.68;75.18;;;;;;;;;;5042499;28;20416;-73
2024/01/04 05:16:35;;;;;;;76.57;72.28;;;;;;;;;;5041606;28;20045;-74
2024/01/04 05:19:10;;;;;;;80.15;75.60;;;;;;;;;;5041425;28;20053;-74
2024/01/04 05:21:41;;;;;;;88.03;83.05;;;;;;;;;;5041875;28;20056;-74
2024/01/04 05:24:11;;;;;;;79.47;75.18;;;;;;;;;;5042592;28;20040;-75
2024/01/04 05:26:42;;;;;;;86.53;81.28;;;;;;;;;;5042325;28;20052;-74
2024/01/04 05:29:13;;;;;;;79.00;74.32;;;;;;;;;;5041924;28;20775;-74
2024/01/04 05:31:44;;;;;;;90.80;85.85;;;;;;;;;;5041386;28;20041;-75
2024/01/04 05:34:13;;;;;;;86.43;81.18;;;;;;;;;;5042828;28;20048;-75
2024/01/04 05:36:46;;;;;;;79.20;74.45;;;;;;;;;;5044163;28;20143;-75
2024/01/04 05:39:17;;;;;;;79.75;74.72;;;;;;;;;;5045613;28;20067;-75
2024/01/04 05:41:49;;;;;;;73.53;69.25;;;;;;;;;;5045280;28;20048;-73
2024/01/04 05:44:19;;;;;;;76.80;72.30;;;;;;;;;;5045571;28;20049;-74
2024/01/04 05:46:50;;;;;;;76.13;72.05;;;;;;;;;;5044089;28;20049;-75
2024/01/04 05:49:21;;;;;;;71.78;67.65;;;;;;;;;;5045578;28;20563;-74
2024/01/04 05:51:51;;;;;;;85.55;80.57;;;;;;;;;;5045097;28;20045;-75
2024/01/04 05:54:21;;;;;;;81.22;76.13;;;;;;;;;;5045473;28;20049;-73
2024/01/04 05:56:52;;;;;;;79.57;75.03;;;;;;;;;;5045081;28;20052;-72
2024/01/04 05:59:25;;;;;;;69.78;65.35;;;;;;;;;;5045136;28;20049;-75
2024/01/04 06:01:57;;;;;;;77.95;73.22;;;;;;;;;;5045251;28;20048;-75
2024/01/04 06:04:28;;;;;;;78.22;73.72;;;;;;;;;;5045327;28;20057;-76
2024/01/04 06:06:58;;;;;;;77.72;73.32;;;;;;;;;;5044999;28;20397;-73
2024/01/04 06:09:30;;;;;;;85.97;81.28;;;;;;;;;;5045142;28;20052;-73
2024/01/04 06:12:01;;;;;;;78.75;74.35;;;;;;;;;;5044373;28;20041;-73
2024/01/04 06:14:33;;;;;;;78.55;73.80;;;;;;;;;;5044733;28;20048;-74
2024/01/04 06:17:03;;;;;;;78.65;73.97;;;;;;;;;;5044545;28;20048;-75
2024/01/04 06:19:35;;;;;;;72.10;68.07;;;;;;;;;;5045010;28;20060;-75
2024/01/04 06:22:05;;;;;;;77.80;73.57;;;;;;;;;;5044256;28;20056;-75
2024/01/04 06:24:35;;;;;;;74.45;70.00;;;;;;;;;;5044592;28;20565;-75
2024/01/04 06:27:06;;;;;;;78.57;74.15;;;;;;;;;;5042992;28;20553;-74
2024/01/04 06:29:37;;;;;;;79.20;74.70;;;;;;;;;;5045052;28;20049;-75
2024/01/04 06:32:08;;;;;;;81.68;77.05;;;;;;;;;;5044664;28;20514;-73
2024/01/04 06:34:38;;;;;;;90.72;85.38;;;;;;;;;;5044471;28;20076;-76
2024/01/04 06:37:10;;;;;;;85.97;80.88;;;;;;;;;;5044765;28;20045;-74
2024/01/04 06:39:41;;;;;;;86.63;81.57;;;;;;;;;;5044451;28;20052;-75
2024/01/04 06:42:14;;;;;;;87.20;82.15;;;;;;;;;;5044257;28;20049;-74
2024/01/04 06:44:46;;;;;;;83.72;79.13;;;;;;;;;;5044439;28;20049;-72
2024/01/04 06:47:17;;;;;;;82.93;78.20;;;;;;;;;;5043275;28;20053;-74
2024/01/04 06:49:51;;;;;;;78.88;74.43;;;;;;;;;;5044282;28;20041;-74
2024/01/04 06:52:35;;;;;;;75.32;71.05;;;;;;;;;;5044534;28;20479;-75
2024/01/04 06:55:05;;;;;;;81.20;76.75;;;;;;;;;;5043928;28;20734;-75
2024/01/04 06:57:35;;;;;;;75.00;70.72;;;;;;;;;;5043670;28;20427;-75
2024/01/04 07:00:10;;;;;;;80.13;75.47;;;;;;;;;;5044804;28;20049;-76
2024/01/04 07:02:41;;;;;;;78.80;74.43;;;;;;;;;;5043680;28;20041;-75
2024/01/04 07:05:11;;;;;;;88.88;84.07;;;;;;;;;;5044414;28;20049;-75
2024/01/04 07:07:42;;;;;;;84.55;79.85;;;;;;;;;;5044118;28;20385;-74
2024/01/04 07:10:12;;;;;;;86.95;82.30;;;;;;;;;;5044404;28;20045;-75
2024/01/04 07:12:43;;;;;;;86.60;81.93;;;;;;;;;;5043839;28;20044;-74
2024/01/04 07:15:14;;;;;;;86.57;81.85;;;;;;;;;;5044035;28;20047;-74
2024/01/04 07:17:43;;;;;;;87.25;82.47;;;;;;;;;;5043103;28;20073;-74
2024/01/04 07:20:15;;;;;;;89.13;84.30;;;;;;;;;;5044049;28;20052;-73
2024/01/04 07:22:47;;;;;;;92.47;87.30;;;;;;;;;;5042743;28;20057;-75
2024/01/04 07:25:18;;;;;;;86.68;81.35;;;;;;;;;;5044820;28;20045;-75
2024/01/04 07:27:48;;;;;;;89.45;84.30;;;;;;;;;;5044292;28;20048;-75
2024/01/04 07:30:22;;;;;;;76.47;71.90;;;;;;;;;;5043664;28;20509;-75
2024/01/04 07:32:53;;;;;;;95.57;90.30;;;;;;;;;;5043485;28;20049;-74
2024/01/04 07:35:24;;;;;;;98.95;93.47;;;;;;;;;;5043282;28;20053;-74
2024/01/04 07:37:54;;;;;;;95.38;89.75;;;;;;;;;;5043097;28;20041;-73
2024/01/04 07:40:27;;;;;;;99.45;93.75;;;;;;;;;;5043187;28;20049;-76
2024/01/04 07:42:57;;;;;;;97.43;91.85;;;;;;;;;;5043169;28;20037;-75
2024/01/04 07:45:28;;;;;;;92.78;87.70;;;;;;;;;;5043461;28;20811;-73
2024/01/04 07:47:58;;;;;;;93.40;88.00;;;;;;;;;;5043069;28;20045;-74
2024/01/04 07:50:29;;;;;;;91.22;85.63;;;;;;;;;;5043315;28;20061;-75
2024/01/04 07:53:00;;;;;;;89.90;84.60;;;;;;;;;;5041569;28;20041;-72
2024/01/04 07:55:31;;;;;;;92.03;86.40;;;;;;;;;;5041834;28;20045;-73
2024/01/04 07:58:03;;;;;;;84.13;79.38;;;;;;;;;;5043302;28;20040;-74
2024/01/04 08:00:34;;;;;;;90.43;84.93;;;;;;;;;;5042007;28;20041;-75
2024/01/04 08:03:06;;;;;;;89.05;83.80;;;;;;;;;;5042851;28;20124;-73
2024/01/04 08:05:36;;;;;;;80.97;76.35;;;;;;;;;;5043009;28;20052;-72
2024/01/04 08:08:07;;;;;;;86.15;81.07;;;;;;;;;;5041394;28;20439;-75
2024/01/04 08:10:38;;;;;;;93.97;88.45;;;;;;;;;;5042396;28;20428;-75
2024/01/04 08:13:08;;;;;;;89.63;84.45;;;;;;;;;;5042818;28;20049;-74
2024/01/04 08:15:38;;;;;;;90.22;85.25;;;;;;;;;;5042875;28;20049;-75
2024/01/04 08:18:08;;;;;;;79.45;74.50;;;;;;;;;;5042116;28;20049;-75
2024/01/04 08:20:39;;;;;;;68.10;63.88;;;;;;;;;;5042343;28;20059;-75
2024/01/04 08:23:10;;;;;;;69.43;64.93;;;;;;;;;;5042224;28;20693;-74
2024/01/04 08:25:41;;;;;;;84.50;79.40;;;;;;;;;;5042541;28;20041;-75
2024/01/04 08:28:12;;;;;;;78.50;74.00;;;;;;;;;;5042887;28;20053;-74
2024/01/04 08:30:42;;;;;;;77.90;73.43;;;;;;;;;;5042240;28;20412;-74
2024/01/04 08:33:13;;;;;;;77.68;73.03;;;;;;;;;;5042321;28;20045;-73
2024/01/04 08:35:44;;;;;;;52.97;49.63;;;;;;;;;;5042134;28;20053;-74
2024/01/04 08:38:14;;;;;;;61.00;57.38;;;;;;;;;;5040806;28;20053;-72
2024/01/04 08:40:44;;;;;;;51.08;48.00;;;;;;;;;;5042408;28;20052;-71
2024/01/04 08:43:15;;;;;;;41.78;39.42;;;;;;;;;;5041671;28;20044;-72
2024/01/04 08:45:46;;;;;;;45.10;42.22;;;;;;;;;;5042103;28;20774;-74
2024/01/04 08:48:16;;;;;;;52.40;49.30;;;;;;;;;;5041758;28;20087;-72
2024/01/04 08:50:47;;;;;;;42.20;39.55;;;;;;;;;;5040669;28;20049;-73
2024/01/04 08:53:20;;;;;;;41.85;39.03;;;;;;;;;;5040606;28;20064;-75
2024/01/04 08:55:51;;;;;;;38.67;36.38;;;;;;;;;;5042348;28;20044;-75
2024/01/04 08:58:21;;;;;;;45.83;43.05;;;;;;;;;;5041903;28;20045;-73
2024/01/04 09:00:51;;;;;;;45.33;41.97;;;;;;;;;;5042137;28;20625;-75
2024/01/04 09:03:22;;;;;;;33.65;31.75;;;;;;;;;;5042209;28;20084;-76
2024/01/04 09:05:53;;;;;;;36.28;33.95;;;;;;;;;;5042050;28;20052;-74
2024/01/04 09:08:26;;;;;;;43.90;40.97;;;;;;;;;;5042252;28;20037;-73
2024/01/04 09:10:57;;;;;;;41.40;38.72;;;;;;;;;;5045172;28;20048;-74
2024/01/04 09:13:31;;;;;;;35.53;33.22;;;;;;;;;;5045611;28;20045;-75
2024/01/04 09:16:03;;;;;;;38.25;35.83;;;;;;;;;;5047020;28;20487;-74
2024/01/04 09:18:35;;;;;;;38.45;36.08;;;;;;;;;;5044598;28;20456;-75
2024/01/04 09:21:05;;;;;;;39.05;36.15;;;;;;;;;;5044941;28;20051;-74
2024/01/04 09:23:36;;;;;;;36.72;34.53;;;;;;;;;;5045432;28;20480;-72
2024/01/04 09:26:08;;;;;;;33.95;31.83;;;;;;;;;;5044097;28;20062;-73
2024/01/04 09:28:39;;;;;;;39.63;37.33;;;;;;;;;;5045664;28;20049;-72
2024/01/04 09:31:09;;;;;;;40.53;37.53;;;;;;;;;;5045196;28;20055;-74
2024/01/04 09:33:40;;;;;;;39.75;37.60;;;;;;;;;;5045754;28;20075;-76
2024/01/04 09:36:12;;;;;;;36.95;34.92;;;;;;;;;;5044545;28;20049;-74
2024/01/04 09:38:44;;;;;;;40.33;37.75;;;;;;;;;;5044987;28;20044;-76
2024/01/04 09:41:27;;;;;;;51.78;48.75;;;;;;;;;;5045521;28;20578;-75
2024/01/04 09:44:05;;;;;;;63.60;59.38;;;;;;;;;;5045526;28;20049;-74
2024/01/04 09:46:40;;;;;;;76.00;71.22;;;;;;;;;;5045313;28;20040;-76
2024/01/04 09:49:13;;;;;;;79.93;75.25;;;;;;;;;;5045859;28;20041;-76
2024/01/04 09:51:43;;;;;;;76.82;72.38;;;;;;;;;;5045940;28;20530;-75
2024/01/04 09:54:16;;;;;;;96.65;90.93;;;;;;;;;;5045717;28;20515;-76
2024/01/04 09:56:50;;;;;;;92.93;87.32;;;;;;;;;;5045024;28;20049;-74
2024/01/04 09:59:21;;;;;;;88.03;82.40;;;;;;;;;;5044812;28;20855;-80
2024/01/04 10:01:53;;;;;;;82.25;76.95;;;;;;;;;;5044960;28;20049;-75
2024/01/04 10:04:25;;;;;;;57.40;54.25;;;;;;;;;;5045014;28;20493;-74
2024/01/04 10:07:00;;;;;;;68.35;64.18;;;;;;;;;;5045244;28;20523;-74
2024/01/04 10:09:55;;;;;;;64.40;60.38;;;;;;;;;;5045467;28;20053;-76
2024/01/04 10:12:34;;;;;;;76.82;72.25;;;;;;;;;;5044295;28;20044;-74
2024/01/04 10:15:04;;;;;;;71.78;67.65;;;;;;;;;;5044739;28;20433;-74
2024/01/04 10:17:37;;;;;;;66.25;62.17;;;;;;;;;;5044892;28;20049;-76
2024/01/04 10:20:09;;;;;;;54.97;51.65;;;;;;;;;;5044972;28;20061;-75
2024/01/04 10:22:42;;;;;;;64.38;60.47;;;;;;;;;;5045350;28;20045;-76
2024/01/04 10:25:18;;;;;;;59.78;56.42;;;;;;;;;;5044808;28;20045;-75
2024/01/04 10:27:56;;;;;;;53.08;50.15;;;;;;;;;;5044231;28;20045;-75
2024/01/04 10:30:27;;;;;;;52.40;49.40;;;;;;;;;;5044909;28;20060;-76
2024/01/04 10:32:58;;;;;;;51.30;48.05;;;;;;;;;;5044131;28;20044;-74
2024/01/04 10:35:29;;;;;;;45.55;42.85;;;;;;;;;;5044395;28;20061;-74
2024/01/04 10:38:01;;;;;;;37.58;35.55;;;;;;;;;;5044646;28;20052;-75
2024/01/04 10:40:33;;;;;;;41.15;38.22;;;;;;;;;;5044393;28;20059;-75
2024/01/04 10:43:04;;;;;;;43.00;40.42;;;;;;;;;;5043381;28;20080;-73
2024/01/04 10:45:38;;;;;;;53.63;50.42;;;;;;;;;;5047490;28;20447;-75
2024/01/04 10:48:15;;;;;;;57.88;54.20;;;;;;;;;;5046786;28;20064;-76
2024/01/04 10:50:46;;;;;;;59.50;55.83;;;;;;;;;;5044573;28;20045;-76
2024/01/04 10:53:17;;;;;;;54.88;51.60;;;;;;;;;;5044425;28;20045;-74
2024/01/04 10:55:52;;;;;;;56.72;53.42;;;;;;;;;;5044641;28;20052;-75
2024/01/04 10:58:25;;;;;;;47.00;44.03;;;;;;;;;;5044898;28;20088;-75
2024/01/04 11:00:58;;;;;;;51.13;48.30;;;;;;;;;;5043857;28;20057;-77
2024/01/04 11:03:31;;;;;;;49.38;46.83;;;;;;;;;;5044341;28;20157;-78
2024/01/04 11:06:02;;;;;;;42.03;39.63;;;;;;;;;;5044115;28;20076;-76
2024/01/04 11:08:35;;;;;;;121.43;113.72;;;;;;;;;;5043906;28;20052;-75
2024/01/04 11:11:10;;;;;;;56.20;53.03;;;;;;;;;;5043372;28;20048;-76
2024/01/04 11:13:42;;;;;;;51.75;49.00;;;;;;;;;;5043204;28;20045;-74
2024/01/04 11:16:36;;;;;;;50.08;47.40;;;;;;;;;;5043552;28;20048;-77
2024/01/04 11:19:32;;;;;;;;;;;;;;;;;;5042668;28;20052;-73
2024/01/04 11:22:09;;;;;;;36.90;34.78;;;;;;;;;;5035935;28;19925;-75
2024/01/04 11:25:10;;;;;;;47.53;44.92;;;;;;;;;;5043429;28;20049;-76
2024/01/04 11:27:42;;;;;;;44.22;41.40;;;;;;;;;;5043167;28;20103;-75
2024/01/04 11:30:15;;;;;;;45.60;43.20;;;;;;;;;;5043791;28;20037;-82
2024/01/04 11:32:48;;;;;;;47.58;44.75;;;;;;;;;;5042593;28;20041;-75
2024/01/04 11:35:21;;;;;;;39.70;37.45;;;;;;;;;;5026362;28;20061;-74
2024/01/04 11:37:53;;;;;;;47.55;44.50;;;;;;;;;;5043547;28;20036;-74
2024/01/04 11:40:30;;;;;;;47.40;44.83;;;;;;;;;;5043308;28;20060;-76
2024/01/04 11:43:05;;;;;;;46.80;43.97;;;;;;;;;;5043774;28;20067;-76
2024/01/04 11:45:35;;;;;;;50.55;47.60;;;;;;;;;;5043660;28;20053;-76
2024/01/04 11:48:13;;;;;;;44.78;42.30;;;;;;;;;;5043047;28;20049;-76
2024/01/04 11:50:49;;;;;;;49.22;46.25;;;;;;;;;;5042883;28;20045;-76
2024/01/04 11:53:20;;;;;;;60.22;56.97;;;;;;;;;;5042875;28;20049;-75
2024/01/04 11:55:50;;;;;;;47.78;45.08;;;;;;;;;;5042772;28;20077;-74
2024/01/04 11:58:28;;;;;;;52.58;49.58;;;;;;;;;;5043250;28;20995;-77
2024/01/04 12:01:02;;;;;;;52.15;48.95;;;;;;;;;;5041527;28;20420;-76
2024/01/04 12:03:32;;;;;;;67.13;63.55;;;;;;;;;;5042974;28;20052;-76
2024/01/04 12:06:06;;;;;;;54.20;51.05;;;;;;;;;;5042576;28;20528;-76
2024/01/04 12:08:39;;;;;;;51.47;48.60;;;;;;;;;;5042773;28;20048;-74
2024/01/04 12:11:10;;;;;;;49.60;46.95;;;;;;;;;;5042781;28;20053;-77
2024/01/04 12:13:44;;;;;;;46.90;43.83;;;;;;;;;;5042376;28;20087;-75
2024/01/04 12:16:15;;;;;;;58.78;55.25;;;;;;;;;;5043220;28;20060;-76
2024/01/04 12:18:47;;;;;;;59.15;55.83;;;;;;;;;;5043694;28;20045;-76
2024/01/04 12:21:18;;;;;;;40.72;38.33;;;;;;;;;;5042706;28;20595;-76
2024/01/04 12:23:51;;;;;;;43.70;41.28;;;;;;;;;;5041817;28;20056;-78
2024/01/04 12:26:24;;;;;;;52.95;50.13;;;;;;;;;;5041788;28;20049;-76
2024/01/04 12:28:56;;;;;;;58.50;55.22;;;;;;;;;;5041776;28;20044;-76
2024/01/04 12:31:29;;;;;;;54.17;51.17;;;;;;;;;;5041825;28;20581;-76
2024/01/04 12:33:59;;;;;;;49.25;46.70;;;;;;;;;;5041740;28;20053;-74
2024/01/04 12:36:30;;;;;;;48.88;46.20;;;;;;;;;;5042044;28;20625;-78
2024/01/04 12:39:13;;;;;;;45.53;42.92;;;;;;;;;;5041851;28;20041;-76
2024/01/04 12:41:44;;;;;;;40.55;38.05;;;;;;;;;;5042270;28;20306;-75
2024/01/04 12:44:17;;;;;;;45.85;42.05;;;;;;;;;;5041222;28;20065;-76
2024/01/04 12:46:47;;;;;;;49.08;46.47;;;;;;;;;;5041841;28;20045;-77
2024/01/04 12:49:18;;;;;;;48.10;45.28;;;;;;;;;;5041658;28;20052;-82
2024/01/04 12:51:54;;;;;;;51.83;49.00;;;;;;;;;;5042075;28;20044;-78
2024/01/04 12:54:27;;;;;;;44.97;42.55;;;;;;;;;;5041146;28;20049;-77
2024/01/04 12:56:57;;;;;;;48.55;45.53;;;;;;;;;;5041679;28;20503;-75
2024/01/04 12:59:28;;;;;;;56.72;53.50;;;;;;;;;;5041355;28;20051;-76
2024/01/04 13:02:00;;;;;;;47.75;45.00;;;;;;;;;;5041400;28;20056;-75
2024/01/04 13:04:31;;;;;;;51.22;48.38;;;;;;;;;;5041315;28;20044;-76
2024/01/04 13:07:01;;;;;;;38.58;36.50;;;;;;;;;;5041498;28;20041;-76
2024/01/04 13:09:34;;;;;;;38.13;35.83;;;;;;;;;;5042732;28;20063;-76
2024/01/04 13:12:06;;;;;;;43.25;40.88;;;;;;;;;;5040874;28;20410;-77
2024/01/04 13:14:37;;;;;;;39.17;37.05;;;;;;;;;;5040189;28;20064;-75
2024/01/04 13:17:06;;;;;;;46.65;44.13;;;;;;;;;;5042522;28;20519;-74
2024/01/04 13:19:37;;;;;;;36.70;34.60;;;;;;;;;;5042088;28;20056;-76
2024/01/04 13:22:08;;;;;;;42.05;39.70;;;;;;;;;;5042395;28;20053;-75
2024/01/04 13:24:38;;;;;;;51.53;48.70;;;;;;;;;;5042338;28;20052;-74
2024/01/04 13:27:09;;;;;;;44.75;42.30;;;;;;;;;;5042176;28;20056;-75
2024/01/04 13:29:42;;;;;;;41.28;39.10;;;;;;;;;;5041598;28;20044;-75
2024/01/04 13:32:12;;;;;;;47.63;45.08;;;;;;;;;;5041551;28;20056;-76
2024/01/04 13:34:46;;;;;;;43.22;40.92;;;;;;;;;;5041731;28;20052;-76
2024/01/04 13:37:16;;;;;;;40.45;38.25;;;;;;;;;;5041961;28;20860;-78
2024/01/04 13:39:47;;;;;;;46.53;44.03;;;;;;;;;;5041708;28;20420;-83
2024/01/04 13:42:18;;;;;;;47.38;44.85;;;;;;;;;;5041883;28;20511;-75
2024/01/04 13:44:49;;;;;;;45.75;43.13;;;;;;;;;;5040467;28;20032;-74
2024/01/04 13:47:19;;;;;;;41.25;38.95;;;;;;;;;;5041125;28;20076;-77
2024/01/04 13:49:49;;;;;;;42.95;40.65;;;;;;;;;;5041430;28;20060;-74
2024/01/04 13:52:20;;;;;;;50.72;48.03;;;;;;;;;;5041465;28;20045;-75
2024/01/04 13:54:54;;;;;;;47.28;44.75;;;;;;;;;;5041785;28;20472;-75
2024/01/04 13:57:25;;;;;;;39.50;37.42;;;;;;;;;;5045347;28;20045;-75
2024/01/04 13:59:55;;;;;;;39.42;37.15;;;;;;;;;;5045198;28;20431;-76
2024/01/04 14:02:26;;;;;;;45.80;43.38;;;;;;;;;;5045335;28;20055;-75
2024/01/04 14:04:57;;;;;;;36.33;34.33;;;;;;;;;;5044866;28;20408;-77
2024/01/04 14:07:29;;;;;;;37.92;35.72;;;;;;;;;;5045110;28;20404;-76
2024/01/04 14:09:59;;;;;;;36.80;34.83;;;;;;;;;;5044803;28;20053;-75
2024/01/04 14:12:30;;;;;;;40.05;37.83;;;;;;;;;;5045163;28;20056;-74
2024/01/04 14:15:05;;;;;;;35.60;33.75;;;;;;;;;;5045366;28;20083;-76
2024/01/04 14:17:39;;;;;;;31.40;29.70;;;;;;;;;;5043575;28;20647;-75
2024/01/04 14:20:10;;;;;;;29.33;27.83;;;;;;;;;;5044702;28;20045;-75
2024/01/04 14:22:41;;;;;;;36.78;34.50;;;;;;;;;;5044433;28;20057;-76
2024/01/04 14:25:14;;;;;;;37.75;35.67;;;;;;;;;;5044642;28;20044;-75
2024/01/04 14:27:50;;;;;;;34.45;32.63;;;;;;;;;;5044786;28;20053;-76
2024/01/04 14:30:21;;;;;;;30.65;28.95;;;;;;;;;;5044680;28;20214;-76
2024/01/04 14:32:51;;;;;;;34.08;32.10;;;;;;;;;;5044548;28;20369;-75
2024/01/04 14:35:23;;;;;;;32.53;30.77;;;;;;;;;;5044338;28;20048;-76
2024/01/04 14:37:53;;;;;;;32.75;30.95;;;;;;;;;;5044835;28;20049;-75
2024/01/04 14:40:24;;;;;;;30.83;29.00;;;;;;;;;;5043771;28;20621;-80
2024/01/04 14:42:54;;;;;;;37.17;34.83;;;;;;;;;;5043320;28;20060;-74
2024/01/04 14:45:28;;;;;;;24.70;23.35;;;;;;;;;;5045328;28;20044;-76